Time;durP1;ratioP1;P1;durP2;ratioP2;P2;SDS_P1;SDS_P2;PMS_P1;PMS_P2;Temp;Humidity;BMP_temperature;BMP_pressure;BME280_temperature;BME280_humidity;BME280_pressure;Samples;Min_cycle;Max_cycle;Signal;HPM_P1;HPM_P2
2021/08/08 00:01:07;;;;;;;1.90;1.80;;;15.00;99.90;;;;;;5007272;28;20636;-77
2021/08/08 00:03:34;;;;;;;2.30;2.20;;;15.10;99.90;;;;;;5006500;28;20057;-76
2021/08/08 00:06:01;;;;;;;3.50;2.08;;;15.00;99.90;;;;;;4979093;28;20116;-76
2021/08/08 00:08:32;;;;;;;2.42;2.10;;;15.00;99.90;;;;;;4969312;28;20038;-77
2021/08/08 00:11:00;;;;;;;2.13;1.92;;;15.10;99.90;;;;;;4998905;28;20306;-77
2021/08/08 00:13:27;;;;;;;5.22;2.05;;;15.10;99.90;;;;;;5006139;28;20057;-76
2021/08/08 00:15:54;;;;;;;5.60;2.05;;;15.00;99.90;;;;;;4987756;28;20061;-77
2021/08/08 00:18:21;;;;;;;3.15;1.85;;;15.00;99.90;;;;;;4986358;28;20054;-77
2021/08/08 00:20:48;;;;;;;2.35;2.00;;;14.90;99.90;;;;;;4986168;28;20054;-77
2021/08/08 00:23:18;;;;;;;4.57;2.00;;;14.90;99.90;;;;;;4975466;28;20046;-77
2021/08/08 00:25:45;;;;;;;2.20;2.00;;;14.90;99.90;;;;;;4997130;28;20049;-77
2021/08/08 00:28:12;;;;;;;2.42;2.22;;;15.00;99.90;;;;;;5004109;28;20049;-77
2021/08/08 00:30:39;;;;;;;6.47;2.00;;;15.00;99.90;;;;;;5003718;28;20042;-77
2021/08/08 00:33:06;;;;;;;2.28;1.85;;;15.00;99.90;;;;;;5003388;28;20058;-76
2021/08/08 00:35:42;;;;;;;3.47;2.03;;;15.00;99.90;;;;;;4967275;28;20038;-77
2021/08/08 00:38:11;;;;;;;1.90;1.80;;;15.00;99.90;;;;;;5002519;28;20199;-77
2021/08/08 00:40:39;;;;;;;2.75;2.00;;;14.90;99.90;;;;;;4997299;28;20073;-76
2021/08/08 00:43:10;;;;;;;3.58;1.90;;;14.90;99.90;;;;;;4973545;28;20049;-77
2021/08/08 00:45:40;;;;;;;2.65;1.88;;;14.90;99.90;;;;;;4972702;28;20038;-76
2021/08/08 00:48:11;;;;;;;3.83;1.85;;;15.00;99.90;;;;;;4985213;28;20057;-76
2021/08/08 00:50:39;;;;;;;6.05;1.80;;;15.00;99.90;;;;;;4948700;28;20049;-76
2021/08/08 00:53:10;;;;;;;4.18;2.25;;;14.90;99.90;;;;;;4984878;28;20043;-76
2021/08/08 00:55:38;;;;;;;4.22;2.20;;;14.90;99.90;;;;;;4974307;28;20038;-76
2021/08/08 00:58:05;;;;;;;2.83;2.22;;;14.90;99.90;;;;;;4970426;28;20069;-76
2021/08/08 01:00:37;;;;;;;2.47;1.80;;;14.90;99.90;;;;;;4983487;28;20097;-76
2021/08/08 01:03:09;;;;;;;1.88;1.70;;;14.90;99.90;;;;;;4968581;28;20233;-76
2021/08/08 01:06:17;;;;;;;3.67;2.08;;;14.80;99.90;;;;;;4966549;28;20557;-76
2021/08/08 01:08:51;;;;;;;2.47;1.90;;;14.80;99.90;;;;;;4982899;28;20050;-76
2021/08/08 01:11:20;;;;;;;2.75;1.60;;;14.80;99.90;;;;;;4950570;28;20073;-77
2021/08/08 01:13:48;;;;;;;2.92;1.90;;;14.80;99.90;;;;;;4984141;28;20137;-76
2021/08/08 01:16:18;;;;;;;4.00;1.90;;;14.70;99.90;;;;;;4964303;28;20325;-76
2021/08/08 01:18:47;;;;;;;1.80;1.70;;;14.70;99.90;;;;;;4979702;28;20177;-77
2021/08/08 01:21:15;;;;;;;2.03;1.83;;;14.80;99.90;;;;;;4986211;28;20046;-76
2021/08/08 01:23:44;;;;;;;2.72;1.85;;;14.80;99.90;;;;;;4993045;28;20062;-77
2021/08/08 01:26:11;;;;;;;4.30;1.73;;;14.80;99.90;;;;;;4989582;28;20063;-77
2021/08/08 01:28:38;;;;;;;5.40;1.77;;;14.70;99.90;;;;;;5009585;28;20033;-76
2021/08/08 01:31:06;;;;;;;1.80;1.70;;;14.70;99.90;;;;;;4993280;28;20046;-77
2021/08/08 01:33:33;;;;;;;5.30;1.65;;;14.70;99.90;;;;;;5004926;28;20061;-77
2021/08/08 01:36:09;;;;;;;2.45;2.25;;;14.70;99.90;;;;;;4972274;28;20054;-77
2021/08/08 01:38:57;;;;;;;4.18;2.13;;;14.70;99.90;;;;;;4968318;28;20359;-76
2021/08/08 01:41:28;;;;;;;3.08;1.50;;;14.70;99.90;;;;;;4983124;28;20061;-76
2021/08/08 01:44:00;;;;;;;7.18;1.77;;;14.60;99.90;;;;;;4951950;28;20073;-77
2021/08/08 01:46:32;;;;;;;4.00;1.67;;;14.60;99.90;;;;;;4967723;28;20050;-76
2021/08/08 01:49:25;;;;;;;2.65;1.60;;;14.60;99.90;;;;;;4991147;28;20060;-76
2021/08/08 01:51:57;;;;;;;3.75;1.88;;;14.60;99.90;;;;;;4982408;28;20137;-76
2021/08/08 01:54:29;;;;;;;2.60;1.60;;;14.60;99.90;;;;;;4967872;28;20054;-76
2021/08/08 01:57:01;;;;;;;3.22;1.80;;;14.60;99.90;;;;;;4997664;28;20049;-76
2021/08/08 01:59:32;;;;;;;1.77;1.30;;;14.70;99.90;;;;;;5003060;28;20057;-77
2021/08/08 02:02:16;;;;;;;1.90;1.45;;;14.70;99.90;;;;;;4976213;28;20602;-76
2021/08/08 02:04:50;;;;;;;3.83;1.67;;;14.70;99.90;;;;;;4967019;28;20150;-76
2021/08/08 02:07:18;;;;;;;6.05;1.80;;;14.70;99.90;;;;;;4963428;28;20042;-76
2021/08/08 02:09:50;;;;;;;2.92;1.60;;;14.70;99.90;;;;;;4981293;28;20081;-76
2021/08/08 02:12:22;;;;;;;3.45;1.90;;;14.80;99.90;;;;;;4982461;28;20058;-76
2021/08/08 02:14:50;;;;;;;3.95;1.50;;;14.70;99.90;;;;;;4982683;28;20078;-76
2021/08/08 02:17:24;;;;;;;4.20;1.92;;;14.70;99.90;;;;;;4983307;28;20050;-77
2021/08/08 02:19:52;;;;;;;5.07;1.85;;;14.80;99.90;;;;;;4966974;28;20058;-76
2021/08/08 02:22:21;;;;;;;4.18;2.00;;;14.80;99.90;;;;;;4987508;28;20053;-76
2021/08/08 02:24:49;;;;;;;5.95;1.92;;;14.80;99.90;;;;;;4978442;28;20054;-77
2021/08/08 02:27:27;;;;;;;3.22;1.90;;;14.70;99.90;;;;;;4986681;28;20052;-77
2021/08/08 02:30:08;;;;;;;3.25;1.85;;;14.70;99.90;;;;;;5002223;28;20111;-77
2021/08/08 02:32:36;;;;;;;4.28;1.75;;;14.70;99.90;;;;;;5002714;28;20510;-76
2021/08/08 02:35:04;;;;;;;4.72;2.08;;;14.60;99.90;;;;;;4968698;28;20054;-76
2021/08/08 02:37:33;;;;;;;5.63;2.00;;;14.60;99.90;;;;;;4967292;28;20067;-76
2021/08/08 02:39:59;;;;;;;4.20;1.80;;;14.60;99.90;;;;;;4983980;28;20058;-76
2021/08/08 02:42:26;;;;;;;4.95;1.75;;;14.60;99.90;;;;;;4966174;28;20054;-76
2021/08/08 02:44:53;;;;;;;2.47;1.90;;;14.60;99.90;;;;;;4966621;28;20046;-77
2021/08/08 02:47:20;;;;;;;3.22;1.75;;;14.60;99.90;;;;;;4970396;28;20462;-77
2021/08/08 02:49:47;;;;;;;3.20;1.50;;;14.50;99.90;;;;;;4987109;28;20056;-76
2021/08/08 02:52:14;;;;;;;1.80;1.60;;;14.50;99.90;;;;;;4987542;28;20145;-77
2021/08/08 02:54:44;;;;;;;1.92;1.80;;;14.50;99.90;;;;;;4965690;28;20052;-77
2021/08/08 02:57:11;;;;;;;3.40;1.80;;;14.50;99.90;;;;;;5001959;28;20101;-77
2021/08/08 02:59:37;;;;;;;4.43;1.83;;;14.50;99.90;;;;;;4988141;28;20057;-76
2021/08/08 03:02:04;;;;;;;2.67;1.58;;;14.50;99.90;;;;;;4989542;28;20057;-76
2021/08/08 03:04:31;;;;;;;4.78;1.73;;;14.60;99.90;;;;;;4990180;28;20582;-76
2021/08/08 03:06:59;;;;;;;3.58;2.10;;;14.60;99.90;;;;;;5005653;28;20050;-76
2021/08/08 03:09:26;;;;;;;3.42;2.20;;;14.70;99.90;;;;;;4988971;28;20092;-76
2021/08/08 03:11:54;;;;;;;5.57;2.25;;;14.80;99.90;;;;;;4988688;28;20140;-76
2021/08/08 03:14:20;;;;;;;2.25;2.05;;;14.80;99.90;;;;;;4985063;28;20062;-76
2021/08/08 03:16:49;;;;;;;4.78;2.55;;;14.80;99.90;;;;;;4961664;28;20430;-76
2021/08/08 03:19:20;;;;;;;2.90;2.10;;;14.80;99.90;;;;;;4979410;28;20064;-76
2021/08/08 03:21:48;;;;;;;4.95;2.38;;;14.90;99.90;;;;;;5002192;28;20509;-77
2021/08/08 03:24:15;;;;;;;4.22;2.42;;;14.90;99.90;;;;;;4994330;28;20491;-76
2021/08/08 03:26:43;;;;;;;3.47;2.33;;;14.90;99.90;;;;;;4985722;28;20093;-76
2021/08/08 03:29:11;;;;;;;3.10;2.20;;;14.90;99.90;;;;;;4969616;28;20057;-77
2021/08/08 03:31:42;;;;;;;3.10;2.30;;;14.90;99.90;;;;;;4970277;28;20131;-76
2021/08/08 03:34:09;;;;;;;3.60;2.17;;;15.00;99.90;;;;;;4985948;28;20058;-76
2021/08/08 03:36:36;;;;;;;2.97;2.30;;;14.90;99.90;;;;;;4985873;28;20611;-77
2021/08/08 03:39:03;;;;;;;2.92;2.58;;;15.00;99.90;;;;;;4970366;28;20084;-77
2021/08/08 03:41:30;;;;;;;3.03;2.40;;;15.00;99.90;;;;;;4988360;28;20180;-76
2021/08/08 03:43:57;;;;;;;3.75;2.70;;;15.10;99.90;;;;;;4988005;28;20042;-76
2021/08/08 03:46:24;;;;;;;3.53;2.72;;;15.00;99.90;;;;;;4968829;28;20046;-77
2021/08/08 03:48:52;;;;;;;7.30;2.90;;;15.10;99.90;;;;;;4985495;28;20062;-77
2021/08/08 03:51:19;;;;;;;3.17;2.60;;;15.10;99.90;;;;;;4968689;28;20051;-76
2021/08/08 03:53:46;;;;;;;3.85;2.67;;;15.10;99.90;;;;;;4992539;28;20046;-76
2021/08/08 03:56:14;;;;;;;8.32;3.10;;;15.10;99.90;;;;;;4969030;28;20085;-76
2021/08/08 03:58:41;;;;;;;2.72;2.50;;;15.20;99.90;;;;;;4989078;28;20082;-76
2021/08/08 04:01:07;;;;;;;2.90;2.70;;;15.10;99.90;;;;;;5004185;28;20137;-75
2021/08/08 04:03:35;;;;;;;3.72;2.92;;;15.20;99.90;;;;;;4988599;28;20050;-76
2021/08/08 04:06:03;;;;;;;3.72;3.15;;;15.20;99.90;;;;;;5003775;28;20108;-77
2021/08/08 04:08:30;;;;;;;4.20;2.85;;;15.20;99.90;;;;;;4988913;28;20053;-76
2021/08/08 04:10:57;;;;;;;4.22;3.10;;;15.20;99.90;;;;;;4993725;28;20065;-76
2021/08/08 04:13:26;;;;;;;7.95;3.67;;;15.20;99.90;;;;;;4969440;28;20046;-76
2021/08/08 04:15:53;;;;;;;3.55;3.25;;;15.20;99.90;;;;;;4967784;28;20562;-76
2021/08/08 04:18:20;;;;;;;6.55;3.40;;;15.30;99.90;;;;;;4963147;28;20043;-76
2021/08/08 04:20:49;;;;;;;6.45;3.63;;;15.30;99.90;;;;;;5003495;28;20442;-76
2021/08/08 04:23:17;;;;;;;4.30;3.63;;;15.30;99.90;;;;;;4996087;28;20077;-77
2021/08/08 04:25:45;;;;;;;4.40;3.10;;;15.30;99.90;;;;;;4997962;28;20050;-76
2021/08/08 04:28:13;;;;;;;3.92;3.42;;;15.30;99.90;;;;;;5004902;28;20081;-76
2021/08/08 04:30:41;;;;;;;4.20;3.25;;;15.30;99.90;;;;;;5001326;28;20088;-76
2021/08/08 04:33:07;;;;;;;4.85;3.67;;;15.30;99.90;;;;;;4968761;28;20056;-76
2021/08/08 04:35:37;;;;;;;6.30;3.90;;;15.40;99.90;;;;;;4982728;28;20050;-76
2021/08/08 04:38:05;;;;;;;5.65;3.80;;;15.40;99.90;;;;;;4968297;28;20054;-77
2021/08/08 04:40:33;;;;;;;3.92;3.17;;;15.40;99.90;;;;;;4984378;28;20057;-76
2021/08/08 04:42:59;;;;;;;4.72;3.88;;;15.40;99.90;;;;;;4968283;28;20050;-76
2021/08/08 04:45:27;;;;;;;7.85;4.07;;;15.40;99.90;;;;;;4965154;28;20046;-76
2021/08/08 04:47:54;;;;;;;8.23;4.85;;;15.40;99.90;;;;;;4968557;28;20593;-76
2021/08/08 04:50:22;;;;;;;6.53;4.18;;;15.40;99.90;;;;;;4974695;28;20533;-76
2021/08/08 04:52:50;;;;;;;6.22;4.18;;;15.50;99.90;;;;;;4979860;28;20448;-76
2021/08/08 04:55:17;;;;;;;7.47;3.95;;;15.50;99.90;;;;;;4989443;28;20539;-76
2021/08/08 04:57:44;;;;;;;8.05;4.35;;;15.40;99.90;;;;;;4985932;28;20057;-76
2021/08/08 05:00:17;;;;;;;3.83;3.53;;;15.40;99.90;;;;;;4967834;28;20062;-76
2021/08/08 05:02:45;;;;;;;6.05;4.57;;;15.40;99.90;;;;;;4968364;28;20050;-76
2021/08/08 05:05:14;;;;;;;5.43;4.32;;;15.40;99.90;;;;;;4982232;28;20113;-76
2021/08/08 05:07:42;;;;;;;6.57;4.40;;;15.40;99.90;;;;;;4984386;28;20462;-76
2021/08/08 05:10:14;;;;;;;5.28;4.03;;;15.50;99.90;;;;;;4968104;28;20158;-76
2021/08/08 05:12:43;;;;;;;6.32;4.95;;;15.40;99.90;;;;;;4958523;28;20054;-76
2021/08/08 05:15:11;;;;;;;5.63;4.40;;;15.50;99.90;;;;;;4991207;28;20057;-77
2021/08/08 05:17:38;;;;;;;9.10;4.57;;;15.50;99.90;;;;;;4957029;28;20051;-75
2021/08/08 05:20:06;;;;;;;6.28;4.90;;;15.50;99.90;;;;;;4980861;28;20070;-76
2021/08/08 05:22:34;;;;;;;4.72;4.20;;;15.50;99.90;;;;;;4991231;28;20052;-76
2021/08/08 05:25:02;;;;;;;5.00;4.50;;;15.50;99.90;;;;;;4974814;28;20485;-76
2021/08/08 05:27:29;;;;;;;5.10;4.60;;;15.60;99.90;;;;;;4983166;28;20050;-76
2021/08/08 05:29:57;;;;;;;5.72;5.00;;;15.60;99.90;;;;;;4983911;28;20132;-77
2021/08/08 05:32:25;;;;;;;6.03;4.88;;;15.70;99.90;;;;;;4983548;28;20415;-76
2021/08/08 05:34:52;;;;;;;6.10;5.63;;;15.70;99.90;;;;;;4969925;28;20046;-76
2021/08/08 05:37:19;;;;;;;7.38;4.82;;;15.80;99.90;;;;;;4951473;28;20422;-76
2021/08/08 05:39:46;;;;;;;6.93;5.35;;;15.90;99.90;;;;;;4951535;28;20517;-76
2021/08/08 05:42:16;;;;;;;5.85;5.13;;;15.90;99.90;;;;;;4982611;28;20050;-75
2021/08/08 05:44:43;;;;;;;6.20;4.85;;;15.90;99.90;;;;;;4991306;28;20096;-76
2021/08/08 05:47:10;;;;;;;5.10;4.65;;;15.90;99.90;;;;;;4986865;28;20046;-76
2021/08/08 05:49:37;;;;;;;5.68;4.80;;;15.80;99.90;;;;;;4983197;28;20141;-76
2021/08/08 05:52:06;;;;;;;6.32;4.70;;;15.60;99.90;;;;;;4982915;28;20077;-76
2021/08/08 05:54:33;;;;;;;9.43;5.18;;;15.60;99.90;;;;;;4981055;28;20043;-76
2021/08/08 05:57:00;;;;;;;7.88;5.90;;;15.50;99.90;;;;;;4965996;28;20057;-76
2021/08/08 05:59:27;;;;;;;5.70;5.30;;;15.50;99.90;;;;;;4982487;28;20408;-76
2021/08/08 06:01:53;;;;;;;6.35;5.65;;;15.50;99.90;;;;;;4981684;28;20050;-76
2021/08/08 06:04:21;;;;;;;9.25;4.80;;;15.40;99.90;;;;;;4982882;28;20366;-76
2021/08/08 06:06:50;;;;;;;4.68;4.20;;;15.50;99.90;;;;;;4965762;28;20050;-75
2021/08/08 06:09:17;;;;;;;7.32;4.80;;;15.40;99.90;;;;;;4982395;28;20046;-76
2021/08/08 06:11:43;;;;;;;10.55;5.65;;;15.40;99.90;;;;;;4965674;28;20056;-77
2021/08/08 06:14:10;;;;;;;5.03;4.53;;;15.40;99.90;;;;;;4967709;28;20525;-78
2021/08/08 06:16:37;;;;;;;10.85;4.60;;;15.30;99.90;;;;;;4981685;28;20058;-77
2021/08/08 06:19:04;;;;;;;6.28;5.35;;;15.30;99.90;;;;;;4950601;28;20222;-77
2021/08/08 06:21:31;;;;;;;5.00;4.53;;;15.30;99.90;;;;;;4968582;28;20249;-78
2021/08/08 06:23:58;;;;;;;6.45;5.25;;;15.40;99.90;;;;;;5001837;28;20050;-77
2021/08/08 06:26:25;;;;;;;9.15;5.35;;;15.50;99.90;;;;;;4983699;28;20179;-78
2021/08/08 06:28:54;;;;;;;8.30;4.85;;;15.50;99.90;;;;;;4966167;28;20050;-77
2021/08/08 06:31:22;;;;;;;8.07;4.60;;;15.60;99.90;;;;;;4981867;28;20061;-78
2021/08/08 06:33:49;;;;;;;9.15;4.63;;;15.60;99.90;;;;;;4982125;28;20061;-79
2021/08/08 06:36:16;;;;;;;10.85;5.45;;;15.50;99.90;;;;;;4965306;28;20047;-78
2021/08/08 06:38:43;;;;;;;7.68;4.90;;;15.60;99.90;;;;;;4993560;28;20050;-77
2021/08/08 06:41:09;;;;;;;7.70;5.20;;;15.60;99.90;;;;;;4966475;28;20077;-78
2021/08/08 06:43:37;;;;;;;5.47;4.97;;;15.50;99.90;;;;;;4982255;28;20058;-78
2021/08/08 06:46:05;;;;;;;8.73;4.80;;;15.50;99.90;;;;;;4967738;28;20133;-77
2021/08/08 06:48:34;;;;;;;8.52;5.72;;;15.50;99.90;;;;;;4980838;28;20137;-77
2021/08/08 06:51:02;;;;;;;10.35;5.85;;;15.70;99.90;;;;;;4962181;28;20053;-77
2021/08/08 06:53:29;;;;;;;10.60;5.50;;;15.70;99.90;;;;;;4976195;28;20144;-77
2021/08/08 06:55:57;;;;;;;5.70;5.20;;;15.80;99.90;;;;;;4996529;28;20458;-77
2021/08/08 06:58:24;;;;;;;8.68;6.05;;;15.90;99.90;;;;;;4969760;28;20050;-77
2021/08/08 07:00:51;;;;;;;8.82;5.15;;;16.00;99.90;;;;;;5000452;28;20061;-77
2021/08/08 07:03:18;;;;;;;10.90;5.00;;;16.10;99.90;;;;;;4984226;28;20329;-77
2021/08/08 07:05:45;;;;;;;10.80;5.68;;;16.10;99.90;;;;;;4983451;28;20116;-77
2021/08/08 07:08:12;;;;;;;6.35;5.72;;;16.10;99.90;;;;;;4986060;28;20538;-77
2021/08/08 07:10:39;;;;;;;7.70;5.80;;;16.20;99.90;;;;;;4984533;28;20045;-78
2021/08/08 07:13:06;;;;;;;6.32;5.30;;;16.20;99.90;;;;;;4980205;28;20053;-77
2021/08/08 07:15:32;;;;;;;8.38;5.45;;;16.20;99.90;;;;;;4986665;28;20055;-78
2021/08/08 07:18:00;;;;;;;6.60;5.35;;;16.10;99.90;;;;;;4974053;28;20066;-77
2021/08/08 07:20:27;;;;;;;5.90;5.32;;;16.20;99.90;;;;;;4968879;28;20047;-77
2021/08/08 07:22:54;;;;;;;7.90;6.57;;;16.70;99.90;;;;;;4977219;28;20541;-77
2021/08/08 07:25:21;;;;;;;7.03;6.38;;;17.10;99.90;;;;;;4989074;28;20140;-77
2021/08/08 07:27:48;;;;;;;7.75;5.97;;;17.50;99.90;;;;;;4981881;28;20465;-76
2021/08/08 07:30:15;;;;;;;9.55;6.50;;;17.80;99.90;;;;;;4965066;28;20058;-77
2021/08/08 07:32:41;;;;;;;8.02;6.70;;;17.80;99.90;;;;;;4984819;28;20496;-77
2021/08/08 07:35:09;;;;;;;8.40;7.13;;;17.80;99.90;;;;;;4981793;28;20053;-77
2021/08/08 07:37:37;;;;;;;7.95;7.18;;;17.50;99.90;;;;;;5004709;28;20061;-77
2021/08/08 07:40:04;;;;;;;7.07;6.60;;;17.30;99.90;;;;;;4971537;28;20061;-77
2021/08/08 07:42:31;;;;;;;10.30;6.53;;;17.20;99.90;;;;;;4987951;28;20574;-77
2021/08/08 07:44:58;;;;;;;8.43;6.50;;;17.40;99.90;;;;;;4993070;28;20746;-77
2021/08/08 07:47:25;;;;;;;6.90;6.40;;;17.50;99.90;;;;;;4984512;28;20137;-76
2021/08/08 07:49:52;;;;;;;7.63;6.65;;;17.50;99.90;;;;;;4985019;28;20073;-77
2021/08/08 07:52:18;;;;;;;8.65;7.05;;;17.60;99.90;;;;;;4985934;28;20047;-77
2021/08/08 07:54:47;;;;;;;8.35;6.68;;;17.80;99.90;;;;;;4979322;28;20049;-77
2021/08/08 07:57:15;;;;;;;6.93;6.32;;;17.50;99.90;;;;;;4988075;28;20054;-77
2021/08/08 07:59:42;;;;;;;7.32;6.65;;;17.50;99.90;;;;;;4971827;28;20139;-77
2021/08/08 08:02:09;;;;;;;6.88;6.28;;;17.30;99.90;;;;;;5003825;28;20050;-77
2021/08/08 08:04:39;;;;;;;7.85;6.35;;;17.10;99.90;;;;;;4986859;28;20046;-77
2021/08/08 08:07:06;;;;;;;8.00;5.95;;;17.00;99.90;;;;;;4986234;28;20042;-77
2021/08/08 08:09:33;;;;;;;9.05;7.25;;;17.00;99.90;;;;;;4971047;28;20056;-78
2021/08/08 08:12:00;;;;;;;11.02;7.00;;;17.00;99.90;;;;;;4967947;28;20134;-77
2021/08/08 08:14:26;;;;;;;7.38;6.43;;;16.90;99.90;;;;;;4950091;28;20126;-77
2021/08/08 08:16:53;;;;;;;7.20;6.47;;;17.30;99.90;;;;;;4986477;28;20618;-77
2021/08/08 08:19:20;;;;;;;9.45;6.45;;;17.40;99.90;;;;;;4947634;28;20492;-77
2021/08/08 08:21:48;;;;;;;9.85;6.25;;;17.50;99.90;;;;;;4982692;28;20058;-77
2021/08/08 08:24:15;;;;;;;9.25;6.43;;;17.50;99.90;;;;;;4993715;28;20331;-78
2021/08/08 08:26:42;;;;;;;5.63;5.32;;;17.50;99.90;;;;;;4982651;28;20519;-76
2021/08/08 08:29:09;;;;;;;10.65;6.50;;;17.20;99.90;;;;;;4967847;28;20550;-77
2021/08/08 08:31:36;;;;;;;7.22;6.38;;;17.30;99.90;;;;;;4967230;28;20565;-77
2021/08/08 08:34:03;;;;;;;7.45;6.80;;;17.50;99.90;;;;;;4965927;28;20239;-77
2021/08/08 08:36:30;;;;;;;8.57;6.38;;;17.60;99.90;;;;;;4975621;28;20103;-78
2021/08/08 08:39:00;;;;;;;7.60;6.88;;;17.70;99.90;;;;;;4992881;28;20503;-77
2021/08/08 08:41:30;;;;;;;8.63;7.25;;;17.50;99.90;;;;;;4981693;28;20061;-77
2021/08/08 08:44:01;;;;;;;8.95;6.60;;;17.20;99.90;;;;;;4988006;28;20054;-77
2021/08/08 08:46:30;;;;;;;7.43;6.00;;;17.10;99.90;;;;;;4990961;28;20527;-77
2021/08/08 08:48:57;;;;;;;8.15;6.00;;;16.90;99.90;;;;;;4972041;28;20192;-77
2021/08/08 08:51:38;;;;;;;7.13;5.90;;;17.00;99.90;;;;;;4983084;28;20050;-77
2021/08/08 08:54:06;;;;;;;6.13;5.60;;;17.20;99.90;;;;;;4967271;28;20145;-77
2021/08/08 08:56:33;;;;;;;8.00;5.85;;;17.60;99.90;;;;;;4985500;28;20038;-77
2021/08/08 08:59:01;;;;;;;8.75;7.22;;;17.80;99.90;;;;;;4988747;28;20136;-78
2021/08/08 09:01:29;;;;;;;7.85;7.07;;;18.20;99.90;;;;;;4983199;28;20477;-77
2021/08/08 09:03:57;;;;;;;7.53;6.88;;;18.40;99.90;;;;;;4966449;28;20117;-78
2021/08/08 09:06:24;;;;;;;7.32;6.93;;;18.70;99.90;;;;;;4965805;28;20104;-78
2021/08/08 09:08:51;;;;;;;7.45;6.68;;;18.80;99.90;;;;;;4967934;28;20050;-78
2021/08/08 09:11:18;;;;;;;6.85;6.25;;;18.90;99.90;;;;;;4965313;28;20064;-77
2021/08/08 09:13:55;;;;;;;7.75;6.90;;;18.80;99.90;;;;;;4982394;28;20050;-78
2021/08/08 09:16:26;;;;;;;7.07;6.47;;;19.10;99.90;;;;;;4965728;28;20058;-76
2021/08/08 09:18:57;;;;;;;13.30;7.28;;;19.10;99.90;;;;;;4983148;28;20056;-77
2021/08/08 09:21:28;;;;;;;6.72;6.32;;;18.90;99.90;;;;;;4981042;28;20050;-77
2021/08/08 09:23:59;;;;;;;8.20;7.40;;;18.90;99.90;;;;;;4993918;28;20238;-78
2021/08/08 09:26:37;;;;;;;7.10;6.70;;;18.50;99.90;;;;;;4966380;28;20074;-77
2021/08/08 09:29:11;;;;;;;7.82;7.32;;;18.50;99.90;;;;;;4984515;28;20292;-77
2021/08/08 09:31:46;;;;;;;7.93;7.22;;;18.50;99.90;;;;;;4965495;28;20051;-78
2021/08/08 09:34:29;;;;;;;10.35;8.15;;;18.70;99.90;;;;;;4966474;28;20053;-77
2021/08/08 09:36:59;;;;;;;8.07;7.35;;;19.00;99.90;;;;;;4980588;28;20050;-77
2021/08/08 09:39:43;;;;;;;7.30;6.75;;;18.90;99.90;;;;;;4998344;28;20116;-77
2021/08/08 09:42:17;;;;;;;8.35;7.75;;;18.90;99.90;;;;;;4948994;28;20060;-77
2021/08/08 09:45:04;;;;;;;6.80;6.40;;;18.90;99.90;;;;;;4983144;28;20117;-78
2021/08/08 09:47:48;;;;;;;9.18;7.32;;;18.80;99.90;;;;;;4984256;28;20054;-77
2021/08/08 09:50:18;;;;;;;7.18;6.78;;;18.80;99.90;;;;;;4986234;28;20045;-75
2021/08/08 09:52:59;;;;;;;8.60;7.85;;;18.70;99.90;;;;;;4994970;28;20038;-77
2021/08/08 09:55:38;;;;;;;8.55;7.95;;;18.80;99.90;;;;;;4970273;28;20057;-77
2021/08/08 09:58:27;;;;;;;8.70;7.90;;;18.80;99.90;;;;;;4967236;28;20546;-77
2021/08/08 10:00:58;;;;;;;8.57;7.97;;;18.70;99.90;;;;;;4981236;28;20104;-76
2021/08/08 10:03:26;;;;;;;8.30;7.72;;;18.60;99.90;;;;;;4984495;28;20117;-75
2021/08/08 10:05:55;;;;;;;8.63;8.00;;;18.60;99.90;;;;;;4982773;28;20100;-76
2021/08/08 10:08:23;;;;;;;9.07;8.48;;;18.70;99.90;;;;;;4983001;28;20327;-75
2021/08/08 10:10:52;;;;;;;12.15;8.27;;;18.80;99.90;;;;;;4981484;28;20546;-75
2021/08/08 10:13:37;;;;;;;9.20;8.38;;;19.00;99.90;;;;;;4983782;28;20050;-75
2021/08/08 10:16:09;;;;;;;9.20;8.43;;;19.10;99.90;;;;;;4965455;28;20049;-75
2021/08/08 10:18:41;;;;;;;8.27;7.88;;;19.20;99.90;;;;;;4980590;28;20458;-76
2021/08/08 10:21:09;;;;;;;10.13;9.32;;;19.10;99.90;;;;;;4985056;28;20471;-75
2021/08/08 10:23:37;;;;;;;9.07;8.35;;;19.30;99.90;;;;;;4991995;28;20058;-77
2021/08/08 10:26:05;;;;;;;9.48;8.80;;;19.30;99.90;;;;;;4987759;28;20058;-77
2021/08/08 10:28:32;;;;;;;10.82;9.77;;;19.30;99.90;;;;;;4984802;28;20442;-77
2021/08/08 10:31:01;;;;;;;9.50;8.70;;;19.20;99.90;;;;;;4965956;28;20054;-76
2021/08/08 10:33:28;;;;;;;10.15;9.30;;;19.80;99.90;;;;;;4982816;28;20046;-75
2021/08/08 10:35:55;;;;;;;9.18;8.40;;;20.10;99.90;;;;;;4983022;28;20082;-76
2021/08/08 10:38:22;;;;;;;10.40;9.70;;;19.80;99.90;;;;;;4982246;28;20543;-76
2021/08/08 10:40:49;;;;;;;9.77;9.05;;;19.50;99.90;;;;;;4983308;28;20054;-76
2021/08/08 10:43:25;;;;;;;8.82;7.95;;;19.40;99.90;;;;;;4983267;28;20462;-76
2021/08/08 10:46:05;;;;;;;9.50;8.80;;;19.30;99.90;;;;;;4981547;28;20050;-76
2021/08/08 10:48:37;;;;;;;9.07;8.27;;;19.50;99.90;;;;;;4965125;28;20046;-76
2021/08/08 10:51:16;;;;;;;8.68;8.07;;;19.80;99.90;;;;;;4977563;28;20042;-76
2021/08/08 10:53:43;;;;;;;9.20;8.55;;;20.10;99.90;;;;;;4983624;28;20637;-76
2021/08/08 10:56:12;;;;;;;8.88;8.10;;;20.10;99.90;;;;;;4985115;28;20058;-75
2021/08/08 10:58:40;;;;;;;8.85;8.15;;;20.00;99.90;;;;;;4985345;28;20491;-76
2021/08/08 11:01:22;;;;;;;8.85;8.15;;;19.80;99.90;;;;;;4982238;28;20148;-76
2021/08/08 11:03:57;;;;;;;8.70;8.05;;;19.70;99.90;;;;;;4965844;28;20076;-75
2021/08/08 11:06:26;;;;;;;8.67;8.00;;;19.60;99.90;;;;;;4966011;28;20057;-75
2021/08/08 11:08:54;;;;;;;8.88;8.38;;;19.40;99.90;;;;;;4986209;28;20113;-76
2021/08/08 11:11:29;;;;;;;9.15;8.52;;;19.20;99.90;;;;;;4968617;28;20462;-76
2021/08/08 11:14:13;;;;;;;8.35;7.65;;;19.20;99.90;;;;;;4985547;28;20066;-76
2021/08/08 11:16:42;;;;;;;8.93;8.30;;;19.40;99.90;;;;;;5000628;28;20056;-75
2021/08/08 11:19:09;;;;;;;8.90;8.40;;;19.50;99.90;;;;;;4987641;28;20057;-75
2021/08/08 11:21:37;;;;;;;9.02;8.40;;;19.30;99.90;;;;;;4986763;28;20124;-76
2021/08/08 11:24:08;;;;;;;10.20;9.30;;;19.30;99.90;;;;;;4996798;28;20217;-77
2021/08/08 11:26:36;;;;;;;8.70;8.23;;;19.40;99.90;;;;;;4985396;28;20117;-77
2021/08/08 11:29:04;;;;;;;8.95;8.27;;;19.50;99.90;;;;;;4995571;28;20328;-76
2021/08/08 11:31:33;;;;;;;8.80;8.40;;;19.50;99.90;;;;;;4988503;28;20471;-75
2021/08/08 11:34:06;;;;;;;9.15;8.55;;;19.70;99.90;;;;;;4996132;28;20149;-76
2021/08/08 11:36:35;;;;;;;8.35;7.85;;;19.60;99.90;;;;;;4985043;28;20050;-75
2021/08/08 11:39:05;;;;;;;8.63;8.02;;;19.50;99.90;;;;;;4985351;28;20050;-76
2021/08/08 11:41:32;;;;;;;9.20;8.52;;;19.40;99.90;;;;;;4985268;28;20500;-74
2021/08/08 11:44:06;;;;;;;8.43;7.93;;;19.60;99.90;;;;;;4969069;28;20438;-77
2021/08/08 11:46:33;;;;;;;7.97;7.57;;;19.60;99.90;;;;;;4968169;28;20561;-75
2021/08/08 11:49:10;;;;;;;8.27;7.72;;;19.60;99.90;;;;;;4973110;28;20120;-76
2021/08/08 11:51:40;;;;;;;8.57;7.88;;;19.40;99.90;;;;;;5004060;28;20524;-76
2021/08/08 11:54:08;;;;;;;8.70;8.13;;;19.30;99.90;;;;;;4993461;28;20431;-75
2021/08/08 11:56:35;;;;;;;9.00;8.30;;;19.30;99.90;;;;;;4968524;28;20051;-74
2021/08/08 11:59:05;;;;;;;8.45;7.85;;;19.40;99.90;;;;;;4987068;28;20400;-74
2021/08/08 12:01:32;;;;;;;7.78;7.15;;;19.50;99.90;;;;;;5006004;28;20061;-74
2021/08/08 12:04:07;;;;;;;7.70;7.20;;;19.50;99.90;;;;;;5005017;28;20085;-74
2021/08/08 12:06:35;;;;;;;8.02;7.35;;;19.60;99.90;;;;;;4987020;28;20451;-74
2021/08/08 12:09:02;;;;;;;8.93;7.55;;;19.50;99.90;;;;;;4991144;28;20547;-74
2021/08/08 12:11:49;;;;;;;8.10;7.60;;;19.50;99.90;;;;;;4985850;28;20299;-73
2021/08/08 12:14:16;;;;;;;8.00;7.15;;;19.30;99.90;;;;;;5000269;28;20054;-74
2021/08/08 12:16:46;;;;;;;7.47;6.85;;;19.20;99.90;;;;;;4984245;28;20054;-73
2021/08/08 12:19:12;;;;;;;7.40;6.70;;;19.20;99.90;;;;;;4984622;28;20108;-73
2021/08/08 12:21:40;;;;;;;8.27;7.75;;;19.30;99.90;;;;;;4986793;28;20054;-73
2021/08/08 12:24:09;;;;;;;8.00;7.47;;;19.40;99.90;;;;;;4991811;28;20507;-74
2021/08/08 12:26:47;;;;;;;8.15;7.65;;;19.30;99.90;;;;;;4993845;28;20042;-73
2021/08/08 12:29:14;;;;;;;8.30;7.70;;;19.30;99.90;;;;;;4993506;28;20051;-73
2021/08/08 12:31:42;;;;;;;7.93;7.32;;;19.30;99.90;;;;;;4983665;28;20050;-72
2021/08/08 12:34:09;;;;;;;7.95;7.43;;;19.20;99.90;;;;;;5004102;28;20286;-72
2021/08/08 12:36:39;;;;;;;7.85;7.30;;;19.10;99.90;;;;;;4989961;28;20050;-74
2021/08/08 12:39:06;;;;;;;8.00;7.50;;;18.90;99.90;;;;;;5001101;28;20068;-74
2021/08/08 12:41:38;;;;;;;8.23;7.60;;;19.00;99.90;;;;;;5005048;28;20137;-74
2021/08/08 12:44:06;;;;;;;8.75;8.05;;;19.10;99.90;;;;;;5002977;28;20223;-73
2021/08/08 12:46:38;;;;;;;8.30;7.65;;;19.40;99.90;;;;;;4986441;28;20051;-74
2021/08/08 12:49:07;;;;;;;8.05;7.35;;;19.50;99.90;;;;;;4985411;28;20042;-75
2021/08/08 12:51:34;;;;;;;8.52;7.72;;;19.60;99.90;;;;;;4988710;28;20081;-74
2021/08/08 12:54:01;;;;;;;9.55;8.10;;;19.70;99.90;;;;;;4991963;28;20100;-75
2021/08/08 12:56:28;;;;;;;8.00;7.32;;;19.60;99.90;;;;;;4985353;28;20386;-76